Moor Row, United Kingdom
Current Conditions -  °F | °C
As of 4:50 AM on Saturday 29 Nov 2014 (Local Time) from EGNS Reporting Station
Overcast Overcast  
Wind Chill: 52°   Ceiling: 1300
Heat Index: 52°   Visibility: 6mi
Dew Point: 48°   Wind: 15mph
Humidity: 88%   Direction: 80°E
Pressure: 29.77"   Gusts: NA
Location:  54.51°N, 3.54°W
Report Text: EGNS 290450Z 08013KT 9999 FEW011 OVC013 11/09 Q1008 NOSIG
Loading
Personal Weather Stations






























Interactive Weather Map New forecast layout! Learn more

10-Day Weather Forecast

Advertisements
Track Severe Weather on mobile